Time;durP1;ratioP1;P1;durP2;ratioP2;P2;SDS_P1;SDS_P2;PMS_P1;PMS_P2;Temp;Humidity;BMP_temperature;BMP_pressure;BME280_temperature;BME280_humidity;BME280_pressure;Samples;Min_cycle;Max_cycle;Signal;HPM_P1;HPM_P2
2022/08/08 00:01:57;;;;;;;15.25;9.10;;;17.50;99.90;;;;;;5085007;28;19951;-61
2022/08/08 00:04:59;;;;;;;15.35;8.68;;;17.50;99.90;;;;;;5094289;28;20366;-65
2022/08/08 00:07:49;;;;;;;12.20;9.27;;;17.40;99.90;;;;;;5093778;28;20098;-63
2022/08/08 00:10:51;;;;;;;12.90;9.02;;;17.30;99.90;;;;;;5092763;28;20036;-62
2022/08/08 00:13:35;;;;;;;14.60;9.10;;;17.30;99.90;;;;;;5076947;28;20037;-61
2022/08/08 00:16:07;;;;;;;18.35;10.10;;;17.30;99.90;;;;;;5093589;28;20040;-61
2022/08/08 00:18:48;;;;;;;18.53;10.27;;;17.30;99.90;;;;;;5093410;28;20070;-60
2022/08/08 00:21:25;;;;;;;14.23;10.40;;;17.20;99.90;;;;;;5093284;28;20277;-61
2022/08/08 00:23:56;;;;;;;16.67;11.00;;;17.20;99.90;;;;;;5091864;28;20355;-61
2022/08/08 00:26:31;;;;;;;17.38;11.60;;;17.20;99.90;;;;;;5091584;28;20082;-61
2022/08/08 00:29:26;;;;;;;18.92;10.43;;;17.10;99.90;;;;;;5093217;28;20097;-61
2022/08/08 00:31:56;;;;;;;16.60;10.63;;;17.20;99.90;;;;;;5092391;28;20036;-61
2022/08/08 00:38:01;;;;;;;18.05;11.30;;;17.20;99.90;;;;;;5092819;28;20053;-61
2022/08/08 00:40:27;;;;;;;16.83;12.00;;;17.10;99.90;;;;;;5092607;28;20111;-61
2022/08/08 00:43:27;;;;;;;17.10;11.73;;;17.10;99.90;;;;;;5091538;28;20115;-61
2022/08/08 00:46:20;;;;;;;17.77;11.77;;;17.00;99.90;;;;;;5092795;28;20505;-61
2022/08/08 00:49:34;;;;;;;15.45;12.07;;;17.00;99.90;;;;;;5092777;28;20029;-61
2022/08/08 00:52:47;;;;;;;22.27;12.90;;;16.90;99.90;;;;;;5093289;28;20024;-61
2022/08/08 00:55:40;;;;;;;18.15;12.38;;;16.90;99.90;;;;;;5092580;28;20028;-61
2022/08/08 00:58:44;;;;;;;17.83;12.65;;;16.80;99.90;;;;;;5092928;28;20016;-61
2022/08/08 01:01:32;;;;;;;17.85;13.25;;;16.80;99.90;;;;;;5092111;28;20032;-62
2022/08/08 01:04:17;;;;;;;24.95;14.27;;;16.80;99.90;;;;;;5092411;28;20154;-61
2022/08/08 01:07:20;;;;;;;22.15;13.88;;;16.80;99.90;;;;;;5092314;28;20447;-62
2022/08/08 01:10:19;;;;;;;23.75;15.00;;;16.80;99.90;;;;;;5092781;28;20025;-61
2022/08/08 01:13:19;;;;;;;21.20;14.77;;;16.70;99.90;;;;;;5092101;28;20032;-61
2022/08/08 01:16:20;;;;;;;20.23;15.18;;;16.70;99.90;;;;;;5092041;28;20099;-61
2022/08/08 01:19:02;;;;;;;26.63;15.93;;;16.80;99.90;;;;;;5092230;28;20020;-61
2022/08/08 01:21:31;;;;;;;22.88;16.20;;;16.80;99.90;;;;;;5092036;28;20039;-61
2022/08/08 01:24:27;;;;;;;25.60;18.23;;;16.90;99.90;;;;;;5090759;28;20028;-61
2022/08/08 01:27:13;;;;;;;24.98;18.05;;;17.00;99.90;;;;;;5091806;28;20107;-61
2022/08/08 01:30:23;;;;;;;23.77;17.45;;;16.90;99.90;;;;;;5092056;28;20028;-60
2022/08/08 01:33:33;;;;;;;28.25;17.20;;;16.70;99.90;;;;;;5091824;28;20042;-61
2022/08/08 01:36:17;;;;;;;23.92;17.83;;;16.70;99.90;;;;;;5069031;28;20040;-61
2022/08/08 01:39:16;;;;;;;24.38;17.58;;;16.60;99.90;;;;;;5069404;28;20107;-61
2022/08/08 01:42:04;;;;;;;24.80;17.88;;;16.50;99.90;;;;;;5088829;28;20079;-61
2022/08/08 01:44:39;;;;;;;23.17;17.02;;;16.50;99.90;;;;;;5092194;28;20081;-61
2022/08/08 01:47:16;;;;;;;24.92;18.00;;;16.40;99.90;;;;;;5091487;28;20093;-62
2022/08/08 01:49:50;;;;;;;23.85;18.63;;;16.40;99.90;;;;;;5091835;28;20024;-61
2022/08/08 01:52:58;;;;;;;24.17;18.85;;;16.40;99.90;;;;;;5091814;28;20035;-60
2022/08/08 01:55:27;;;;;;;24.15;18.38;;;16.30;99.90;;;;;;5091702;28;20058;-60
2022/08/08 01:58:09;;;;;;;26.45;19.00;;;16.30;99.90;;;;;;5091533;28;20519;-60
2022/08/08 02:01:01;;;;;;;26.88;19.80;;;16.30;99.90;;;;;;5091128;28;20048;-60
2022/08/08 02:03:47;;;;;;;27.45;19.83;;;16.20;99.90;;;;;;5091367;28;20024;-60
2022/08/08 02:06:33;;;;;;;27.23;19.60;;;16.20;99.90;;;;;;5091257;28;20028;-60
2022/08/08 02:09:02;;;;;;;27.15;20.83;;;16.20;99.90;;;;;;5091447;28;20044;-59
2022/08/08 02:11:33;;;;;;;28.10;21.15;;;16.20;99.90;;;;;;5091000;28;20427;-60
2022/08/08 02:14:07;;;;;;;31.63;22.25;;;16.20;99.90;;;;;;5090493;28;20042;-60
2022/08/08 02:17:12;;;;;;;30.05;21.67;;;16.20;99.90;;;;;;5091127;28;20028;-60
2022/08/08 02:19:53;;;;;;;29.58;21.65;;;16.20;99.90;;;;;;5083834;28;20036;-60
2022/08/08 02:22:47;;;;;;;30.67;23.02;;;16.20;99.90;;;;;;5091089;28;20099;-60
2022/08/08 02:25:35;;;;;;;33.88;24.88;;;16.10;99.90;;;;;;5091016;28;20028;-60
2022/08/08 02:28:09;;;;;;;30.75;23.08;;;16.10;99.90;;;;;;5090970;28;20020;-60
2022/08/08 02:31:11;;;;;;;30.30;23.88;;;16.20;99.90;;;;;;5091301;28;20024;-62
2022/08/08 02:34:01;;;;;;;31.45;23.63;;;16.20;99.90;;;;;;5090927;28;20095;-61
2022/08/08 02:36:36;;;;;;;36.60;24.98;;;16.10;99.90;;;;;;5091040;28;20032;-61
2022/08/08 02:39:38;;;;;;;32.75;24.27;;;16.10;99.90;;;;;;5091193;28;20059;-61
2022/08/08 02:42:36;;;;;;;33.92;24.77;;;16.10;99.90;;;;;;5090902;28;20480;-61
2022/08/08 02:45:20;;;;;;;34.50;24.67;;;16.00;99.90;;;;;;5091010;28;20028;-61
2022/08/08 02:48:22;;;;;;;36.08;25.40;;;16.00;99.90;;;;;;5091005;28;20039;-60
2022/08/08 02:51:34;;;;;;;36.50;27.17;;;16.10;99.90;;;;;;5089584;28;20450;-60
2022/08/08 02:54:18;;;;;;;35.63;27.20;;;16.00;99.90;;;;;;5090889;28;20016;-61
2022/08/08 02:57:21;;;;;;;34.53;25.65;;;16.00;99.90;;;;;;5091186;28;20036;-60
2022/08/08 03:00:06;;;;;;;38.35;26.25;;;16.00;99.90;;;;;;5090840;28;20063;-60
2022/08/08 03:02:56;;;;;;;33.55;25.90;;;16.00;99.90;;;;;;5090630;28;20021;-61
2022/08/08 03:05:34;;;;;;;33.47;27.05;;;16.00;99.90;;;;;;5090774;28;20032;-61
2022/08/08 03:08:45;;;;;;;37.78;26.27;;;16.00;99.90;;;;;;5090908;28;20024;-60
2022/08/08 03:11:40;;;;;;;35.90;26.55;;;16.00;99.90;;;;;;5090981;28;20165;-60
2022/08/08 03:14:30;;;;;;;36.67;27.02;;;15.90;99.90;;;;;;5090679;28;20495;-61
2022/08/08 03:17:15;;;;;;;32.95;26.15;;;16.00;99.90;;;;;;5090576;28;20437;-60
2022/08/08 03:20:10;;;;;;;32.25;26.20;;;15.90;99.90;;;;;;5089726;28;20088;-60
2022/08/08 03:22:50;;;;;;;39.85;28.05;;;15.90;99.90;;;;;;5090617;28;20035;-60
2022/08/08 03:25:19;;;;;;;36.25;28.00;;;15.90;99.90;;;;;;5092358;28;20040;-60
2022/08/08 03:28:10;;;;;;;39.50;27.65;;;15.90;99.90;;;;;;5094257;28;20027;-60
2022/08/08 03:30:36;;;;;;;35.00;27.55;;;15.80;99.90;;;;;;5090716;28;20138;-60
2022/08/08 03:33:17;;;;;;;38.92;28.40;;;15.80;99.90;;;;;;5094218;28;20028;-60
2022/08/08 03:35:47;;;;;;;41.90;29.85;;;15.80;99.90;;;;;;5094054;28;20060;-60
2022/08/08 03:38:13;;;;;;;37.85;27.83;;;15.70;99.90;;;;;;5094362;28;20066;-60
2022/08/08 03:40:39;;;;;;;42.13;29.65;;;15.70;99.90;;;;;;5092679;28;20040;-61
2022/08/08 03:43:09;;;;;;;42.15;29.30;;;15.80;99.90;;;;;;5092709;28;20408;-61
2022/08/08 03:45:35;;;;;;;42.88;29.25;;;15.80;99.90;;;;;;5094079;28;20095;-60
2022/08/08 03:48:07;;;;;;;42.00;30.27;;;15.80;99.90;;;;;;5092712;28;20111;-60
2022/08/08 03:50:34;;;;;;;37.27;29.70;;;15.90;99.90;;;;;;5093821;28;20107;-61
2022/08/08 03:53:12;;;;;;;37.55;28.77;;;16.00;99.90;;;;;;5093698;28;20111;-61
2022/08/08 03:55:42;;;;;;;40.33;29.63;;;15.90;99.90;;;;;;5093821;28;20392;-61
2022/08/08 03:58:09;;;;;;;39.72;28.73;;;15.80;99.90;;;;;;5093972;28;20035;-61
2022/08/08 04:00:35;;;;;;;37.85;30.00;;;15.80;99.90;;;;;;5092056;28;20063;-61
2022/08/08 04:03:04;;;;;;;43.15;29.58;;;15.80;99.90;;;;;;5093600;28;20135;-61
2022/08/08 04:05:35;;;;;;;39.20;29.05;;;15.80;99.90;;;;;;5093478;28;20068;-61
2022/08/08 04:08:05;;;;;;;38.78;28.52;;;15.80;99.90;;;;;;5093963;28;20028;-61
2022/08/08 04:10:32;;;;;;;38.38;28.52;;;15.80;99.90;;;;;;5092230;28;20024;-61
2022/08/08 04:12:58;;;;;;;36.78;28.70;;;15.80;99.90;;;;;;5093378;28;20093;-61
2022/08/08 04:15:24;;;;;;;39.85;29.33;;;15.70;99.90;;;;;;5093329;28;20089;-61
2022/08/08 04:17:50;;;;;;;39.13;29.33;;;15.70;99.90;;;;;;5093455;28;20434;-61
2022/08/08 04:20:16;;;;;;;43.47;29.35;;;15.70;99.90;;;;;;5093366;28;20040;-60
2022/08/08 04:22:42;;;;;;;42.45;29.65;;;15.70;99.90;;;;;;5093247;28;20070;-60
2022/08/08 04:25:08;;;;;;;37.13;28.05;;;15.70;99.90;;;;;;5093110;28;20084;-60
2022/08/08 04:27:35;;;;;;;35.63;28.50;;;15.60;99.90;;;;;;5093107;28;20016;-60
2022/08/08 04:30:03;;;;;;;36.80;29.00;;;15.60;99.90;;;;;;5093291;28;20035;-60
2022/08/08 04:32:29;;;;;;;43.17;28.42;;;15.60;99.90;;;;;;5093479;28;20044;-60
2022/08/08 04:34:54;;;;;;;41.03;28.77;;;15.50;99.90;;;;;;5092916;28;20109;-60
2022/08/08 04:37:20;;;;;;;38.05;29.52;;;15.50;99.90;;;;;;5092276;28;20473;-60
2022/08/08 04:39:46;;;;;;;44.22;29.83;;;15.60;99.90;;;;;;5093137;28;20039;-59
2022/08/08 04:42:11;;;;;;;42.60;30.05;;;15.60;99.90;;;;;;5092765;28;20447;-60
2022/08/08 04:44:37;;;;;;;38.90;29.02;;;15.60;99.90;;;;;;5093158;28;20024;-59
2022/08/08 04:47:03;;;;;;;43.25;30.02;;;15.70;99.90;;;;;;5092496;28;20369;-60
2022/08/08 04:49:29;;;;;;;42.03;30.27;;;15.70;99.90;;;;;;5092760;28;20031;-60
2022/08/08 04:51:54;;;;;;;34.72;28.60;;;15.80;99.90;;;;;;5092747;28;20085;-60
2022/08/08 04:54:20;;;;;;;36.55;27.08;;;15.70;99.90;;;;;;5092869;28;20031;-60
2022/08/08 04:56:46;;;;;;;33.85;27.90;;;15.70;99.90;;;;;;5092496;28;20093;-60
2022/08/08 04:59:12;;;;;;;38.97;27.90;;;15.70;99.90;;;;;;5092384;28;20512;-60
2022/08/08 05:01:37;;;;;;;37.13;28.75;;;15.70;99.90;;;;;;5092614;28;20132;-60
2022/08/08 05:04:03;;;;;;;34.63;27.23;;;15.70;99.90;;;;;;5092297;28;20107;-60
2022/08/08 05:06:29;;;;;;;33.92;27.30;;;15.80;99.90;;;;;;5092432;28;20059;-60
2022/08/08 05:08:55;;;;;;;36.63;26.75;;;15.80;99.90;;;;;;5092177;28;20059;-60
2022/08/08 05:11:21;;;;;;;36.55;26.27;;;15.80;99.90;;;;;;5092332;28;20028;-61
2022/08/08 05:13:47;;;;;;;36.35;26.10;;;15.80;99.90;;;;;;5092224;28;20105;-60
2022/08/08 05:16:12;;;;;;;34.35;26.70;;;15.80;99.90;;;;;;5092028;28;20024;-60
2022/08/08 05:18:38;;;;;;;33.15;25.63;;;15.80;99.90;;;;;;5092448;28;20070;-60
2022/08/08 05:21:09;;;;;;;37.10;26.02;;;15.80;99.90;;;;;;5092194;28;20028;-60
2022/08/08 05:23:35;;;;;;;37.67;25.70;;;15.90;99.90;;;;;;5092046;28;20020;-60
2022/08/08 05:26:02;;;;;;;34.45;25.70;;;15.90;99.90;;;;;;5092121;28;20222;-61
2022/08/08 05:28:28;;;;;;;37.55;24.85;;;16.00;99.90;;;;;;5092001;28;20103;-61
2022/08/08 05:30:54;;;;;;;34.42;24.98;;;16.00;99.90;;;;;;5091849;28;20385;-61
2022/08/08 05:33:20;;;;;;;36.13;25.15;;;16.00;99.90;;;;;;5092064;28;20073;-61
2022/08/08 05:35:46;;;;;;;33.30;23.55;;;16.10;99.90;;;;;;5091851;28;20031;-62
2022/08/08 05:38:17;;;;;;;35.70;24.92;;;16.10;99.90;;;;;;5092072;28;20035;-61
2022/08/08 05:40:46;;;;;;;32.75;22.98;;;16.20;99.90;;;;;;5091786;28;20035;-61
2022/08/08 05:43:26;;;;;;;31.33;23.20;;;16.20;99.90;;;;;;5091707;28;20042;-61
2022/08/08 05:45:56;;;;;;;31.67;23.13;;;16.30;99.90;;;;;;5091532;28;20491;-61
2022/08/08 05:48:22;;;;;;;32.72;22.67;;;16.40;99.90;;;;;;5091723;28;20020;-61
2022/08/08 05:50:49;;;;;;;33.22;24.23;;;16.60;99.90;;;;;;5091630;28;20035;-61
2022/08/08 05:53:16;;;;;;;36.00;23.40;;;16.70;99.90;;;;;;5091646;28;20023;-59
2022/08/08 05:55:44;;;;;;;33.38;22.88;;;16.90;99.90;;;;;;5091706;28;20028;-59
2022/08/08 05:58:12;;;;;;;37.15;23.15;;;17.00;99.90;;;;;;5073506;28;20056;-59
2022/08/08 06:00:38;;;;;;;32.95;23.75;;;17.10;99.90;;;;;;5091163;28;20097;-58
2022/08/08 06:03:10;;;;;;;33.03;22.55;;;17.30;99.90;;;;;;5091236;28;20510;-59
2022/08/08 06:05:50;;;;;;;34.17;23.33;;;17.20;99.90;;;;;;5091635;28;20389;-59
2022/08/08 06:08:24;;;;;;;32.78;22.20;;;17.30;99.90;;;;;;5091392;28;20545;-59
2022/08/08 06:10:51;;;;;;;33.80;20.95;;;17.40;99.90;;;;;;5091401;28;20028;-59
2022/08/08 06:13:17;;;;;;;27.00;18.48;;;17.40;99.90;;;;;;5091022;28;20082;-59
2022/08/08 06:15:47;;;;;;;28.58;19.85;;;17.30;99.90;;;;;;5090179;28;20028;-61
2022/08/08 06:18:14;;;;;;;29.15;18.13;;;17.20;99.90;;;;;;5091674;28;20381;-60
2022/08/08 06:20:41;;;;;;;25.77;17.55;;;17.40;99.90;;;;;;5091170;28;20391;-60
2022/08/08 06:23:07;;;;;;;29.17;18.20;;;17.40;99.90;;;;;;5090870;28;20035;-60
2022/08/08 06:25:38;;;;;;;25.33;16.90;;;17.60;99.90;;;;;;5091117;28;20365;-60
2022/08/08 06:28:17;;;;;;;26.70;16.30;;;17.70;99.90;;;;;;5091340;28;20028;-62
2022/08/08 06:30:44;;;;;;;21.25;15.90;;;18.00;99.90;;;;;;5091570;28;20251;-63
2022/08/08 06:33:11;;;;;;;21.90;16.00;;;18.20;99.90;;;;;;5090947;28;20028;-62
2022/08/08 06:35:45;;;;;;;21.58;15.43;;;18.40;99.90;;;;;;5091171;28;20080;-61
2022/08/08 06:38:21;;;;;;;27.73;16.77;;;18.40;99.90;;;;;;5091306;28;20060;-62
2022/08/08 06:40:52;;;;;;;25.10;16.08;;;18.40;99.90;;;;;;5091466;28;20503;-62
2022/08/08 06:43:20;;;;;;;21.40;15.75;;;18.40;99.90;;;;;;5090862;28;20028;-62
2022/08/08 06:45:46;;;;;;;25.70;16.70;;;18.40;99.90;;;;;;5090744;28;20028;-59
2022/08/08 06:48:13;;;;;;;22.67;16.90;;;18.40;99.90;;;;;;5090815;28;20541;-59
2022/08/08 06:50:40;;;;;;;23.30;15.77;;;18.50;99.90;;;;;;5090910;28;20039;-59
2022/08/08 06:53:07;;;;;;;21.30;14.90;;;18.30;99.90;;;;;;5089226;28;20089;-59
2022/08/08 06:55:35;;;;;;;21.15;14.90;;;18.30;99.90;;;;;;5090836;28;20389;-59
2022/08/08 06:58:01;;;;;;;18.95;13.35;;;18.40;99.90;;;;;;5091230;28;20024;-61
2022/08/08 07:00:31;;;;;;;17.55;13.40;;;18.50;99.90;;;;;;5093376;28;20055;-61
2022/08/08 07:03:01;;;;;;;17.95;13.40;;;18.60;99.90;;;;;;5095211;28;20373;-61
2022/08/08 07:05:32;;;;;;;17.65;12.35;;;18.80;99.90;;;;;;5094814;28;20046;-61
2022/08/08 07:08:08;;;;;;;20.77;13.35;;;19.00;99.90;;;;;;5095178;28;20430;-61
2022/08/08 07:10:44;;;;;;;15.93;12.38;;;19.30;99.90;;;;;;5094759;28;20429;-62
2022/08/08 07:13:16;;;;;;;16.13;10.80;;;20.50;99.90;;;;;;5094389;28;20482;-63
2022/08/08 07:16:04;;;;;;;15.00;11.67;;;21.80;99.90;;;;;;5094895;28;20032;-63
2022/08/08 07:19:15;;;;;;;14.57;9.63;;;22.50;99.90;;;;;;5094745;28;20476;-63
2022/08/08 07:21:54;;;;;;;14.15;8.50;;;23.70;99.90;;;;;;5052093;28;20033;-63
2022/08/08 07:24:43;;;;;;;11.80;8.63;;;25.00;99.90;;;;;;5092637;28;20503;-63
2022/08/08 07:27:11;;;;;;;11.23;8.45;;;25.20;99.90;;;;;;5094224;28;20357;-62
2022/08/08 07:29:38;;;;;;;11.35;7.60;;;25.60;99.90;;;;;;5094835;28;20520;-63
2022/08/08 07:32:06;;;;;;;16.17;7.70;;;25.50;99.90;;;;;;5094089;28;20511;-63
2022/08/08 07:34:33;;;;;;;10.23;6.68;;;25.20;99.90;;;;;;5093034;28;20023;-63
2022/08/08 07:37:01;;;;;;;10.63;6.60;;;25.80;99.90;;;;;;5094186;28;20074;-63
2022/08/08 07:39:29;;;;;;;9.60;6.50;;;26.20;99.90;;;;;;5094115;28;20055;-64
2022/08/08 07:41:59;;;;;;;9.77;6.07;;;26.90;99.30;;;;;;5094131;28;20028;-63
2022/08/08 07:44:25;;;;;;;10.90;6.10;;;27.10;98.10;;;;;;5093800;28;20035;-63
2022/08/08 07:46:51;;;;;;;30.80;8.43;;;27.10;97.40;;;;;;5093695;28;20016;-63
2022/08/08 07:49:17;;;;;;;10.10;5.70;;;27.00;97.80;;;;;;5094065;28;20500;-64
2022/08/08 07:51:43;;;;;;;10.52;5.53;;;27.00;97.10;;;;;;5094190;28;20052;-63
2022/08/08 07:54:32;;;;;;;9.38;6.60;;;27.10;97.10;;;;;;5093580;28;20095;-63
2022/08/08 07:57:15;;;;;;;8.45;5.65;;;27.20;96.20;;;;;;5093944;28;20035;-63
2022/08/08 08:00:13;;;;;;;8.30;5.32;;;26.60;97.30;;;;;;5093721;28;20044;-63
2022/08/08 08:02:43;;;;;;;11.75;5.55;;;27.00;96.60;;;;;;5092078;28;20028;-63
2022/08/08 08:05:23;;;;;;;7.90;5.38;;;27.60;95.80;;;;;;5076207;28;20039;-63
2022/08/08 08:07:58;;;;;;;10.43;5.20;;;28.10;94.70;;;;;;5093483;28;20035;-63
2022/08/08 08:10:26;;;;;;;8.00;4.65;;;28.20;93.70;;;;;;5092874;28;20247;-63
2022/08/08 08:13:00;;;;;;;6.38;4.30;;;28.40;93.40;;;;;;5093077;28;20051;-63
2022/08/08 08:15:26;;;;;;;5.90;4.72;;;28.40;93.10;;;;;;5093340;28;20028;-63
2022/08/08 08:17:57;;;;;;;10.80;4.63;;;28.60;91.60;;;;;;5092263;28;20123;-63
2022/08/08 08:20:28;;;;;;;6.95;4.32;;;28.40;91.50;;;;;;5093137;28;20036;-63
2022/08/08 08:22:54;;;;;;;5.53;3.78;;;28.30;91.40;;;;;;5093416;28;20031;-63
2022/08/08 08:25:20;;;;;;;7.28;4.63;;;28.00;91.80;;;;;;5093016;28;20032;-63
2022/08/08 08:27:46;;;;;;;6.88;4.30;;;28.30;90.70;;;;;;5093006;28;20031;-63
2022/08/08 08:30:12;;;;;;;7.82;4.13;;;28.80;90.20;;;;;;5093523;28;20032;-62
2022/08/08 08:32:37;;;;;;;7.70;4.28;;;28.30;90.00;;;;;;5092793;28;20369;-63
2022/08/08 08:35:03;;;;;;;16.77;4.88;;;28.50;90.00;;;;;;5092244;28;20024;-63
2022/08/08 08:37:29;;;;;;;9.55;4.40;;;28.40;90.30;;;;;;5093417;28;20373;-63
2022/08/08 08:39:55;;;;;;;10.15;5.13;;;28.40;90.80;;;;;;5093001;28;20024;-63
2022/08/08 08:42:23;;;;;;;8.43;4.32;;;29.00;89.20;;;;;;5092148;28;20093;-64
2022/08/08 08:44:50;;;;;;;9.48;5.07;;;29.00;88.50;;;;;;5092493;28;20023;-63
2022/08/08 08:47:17;;;;;;;8.70;4.18;;;29.60;88.00;;;;;;5092621;28;20077;-63
2022/08/08 08:49:43;;;;;;;8.10;4.75;;;29.70;86.60;;;;;;5093034;28;20491;-63
2022/08/08 08:52:15;;;;;;;8.18;5.07;;;29.00;86.50;;;;;;5092861;28;20028;-63
2022/08/08 08:54:42;;;;;;;10.10;4.38;;;28.90;87.90;;;;;;5092874;28;20438;-64
2022/08/08 08:57:09;;;;;;;6.72;4.35;;;28.90;88.20;;;;;;5092470;28;20028;-63
2022/08/08 08:59:41;;;;;;;12.75;5.03;;;29.30;86.50;;;;;;5092652;28;20052;-64
2022/08/08 09:02:18;;;;;;;8.30;3.90;;;29.20;85.50;;;;;;5093088;28;20437;-63
2022/08/08 09:04:46;;;;;;;6.85;4.22;;;29.60;85.70;;;;;;5092356;28;20020;-63
2022/08/08 09:07:17;;;;;;;6.75;3.78;;;29.70;84.60;;;;;;5092349;28;20035;-63
2022/08/08 09:09:52;;;;;;;10.00;4.32;;;29.90;82.90;;;;;;5091206;28;20389;-63
2022/08/08 09:12:21;;;;;;;8.57;4.80;;;30.20;80.80;;;;;;5092460;28;20028;-63
2022/08/08 09:14:52;;;;;;;8.20;4.63;;;30.10;81.30;;;;;;5092155;28;20020;-63
2022/08/08 09:17:18;;;;;;;11.45;4.20;;;29.50;84.20;;;;;;5090909;28;20378;-63
2022/08/08 09:19:47;;;;;;;8.30;3.90;;;29.70;81.40;;;;;;5092320;28;20047;-63
2022/08/08 09:22:13;;;;;;;8.80;4.53;;;28.50;85.60;;;;;;5090817;28;20361;-63
2022/08/08 09:24:41;;;;;;;5.72;3.60;;;28.20;87.00;;;;;;5091947;28;20020;-63
2022/08/08 09:27:07;;;;;;;5.03;3.63;;;28.20;87.20;;;;;;5092071;28;20047;-63
2022/08/08 09:30:00;;;;;;;7.22;3.78;;;28.40;86.60;;;;;;5092275;28;20047;-63
2022/08/08 09:32:39;;;;;;;7.28;2.80;;;28.70;85.40;;;;;;5091909;28;20028;-64
2022/08/08 09:35:09;;;;;;;6.40;2.47;;;29.50;83.50;;;;;;5092249;28;20023;-64
2022/08/08 09:37:52;;;;;;;6.53;2.47;;;29.70;80.90;;;;;;5091867;28;20024;-63
2022/08/08 09:40:22;;;;;;;10.20;2.65;;;30.00;79.10;;;;;;5091816;28;20036;-63
2022/08/08 09:43:10;;;;;;;3.75;2.38;;;30.20;79.80;;;;;;5090458;28;20016;-63
2022/08/08 09:45:45;;;;;;;4.18;2.05;;;29.60;79.10;;;;;;5091310;28;20503;-64
2022/08/08 09:48:11;;;;;;;4.65;1.80;;;30.10;78.50;;;;;;5092454;28;20024;-63
2022/08/08 09:50:37;;;;;;;7.38;2.53;;;30.00;78.10;;;;;;5091534;28;20113;-64
2022/08/08 09:53:05;;;;;;;5.80;2.38;;;30.60;76.60;;;;;;5091441;28;20016;-64
2022/08/08 09:55:30;;;;;;;4.82;2.08;;;30.70;76.80;;;;;;5091981;28;20116;-63
2022/08/08 09:58:07;;;;;;;5.18;2.20;;;30.70;77.90;;;;;;5091888;28;20088;-63
2022/08/08 10:00:36;;;;;;;3.53;1.83;;;31.10;75.30;;;;;;5091136;28;20062;-63
2022/08/08 10:03:03;;;;;;;6.75;1.95;;;31.50;73.30;;;;;;5091473;28;20101;-64
2022/08/08 10:05:34;;;;;;;7.28;2.20;;;31.50;72.70;;;;;;5090464;28;20063;-64
2022/08/08 10:08:00;;;;;;;11.50;1.92;;;31.60;72.50;;;;;;5091681;28;20085;-63
2022/08/08 10:10:35;;;;;;;2.67;1.58;;;31.60;71.70;;;;;;5091175;28;20394;-63
2022/08/08 10:13:21;;;;;;;3.67;1.73;;;31.10;71.90;;;;;;5091221;28;20016;-64
2022/08/08 10:15:55;;;;;;;4.28;1.55;;;30.40;73.50;;;;;;5090757;28;20076;-63
2022/08/08 10:18:25;;;;;;;5.80;1.77;;;30.50;73.00;;;;;;5091434;28;20013;-63
2022/08/08 10:20:53;;;;;;;5.30;1.70;;;30.10;75.10;;;;;;5089801;28;20400;-63
2022/08/08 10:23:45;;;;;;;3.80;1.50;;;30.20;75.40;;;;;;5091038;28;20028;-64
2022/08/08 10:26:17;;;;;;;2.90;1.30;;;30.70;74.30;;;;;;5090564;28;20072;-64
2022/08/08 10:28:52;;;;;;;1.90;1.50;;;30.90;73.50;;;;;;5091299;28;20434;-64
2022/08/08 10:34:12;;;;;;;2.20;0.95;;;30.10;73.70;;;;;;5090783;28;20046;-63
2022/08/08 10:36:41;;;;;;;3.13;1.60;;;30.80;72.20;;;;;;5091109;28;20020;-64
2022/08/08 10:39:08;;;;;;;1.95;1.05;;;30.50;71.90;;;;;;5091780;28;20036;-64
2022/08/08 10:41:36;;;;;;;174.88;11.55;;;30.50;71.70;;;;;;5090713;28;20028;-64
2022/08/08 10:44:04;;;;;;;4.47;1.42;;;31.20;69.10;;;;;;5091308;28;20032;-64
2022/08/08 10:46:30;;;;;;;3.10;1.08;;;31.10;68.90;;;;;;5091087;28;20036;-64
2022/08/08 10:48:57;;;;;;;4.28;1.48;;;31.60;67.90;;;;;;5091253;28;20055;-64
2022/08/08 10:51:35;;;;;;;6.88;1.65;;;30.90;70.00;;;;;;5090745;28;20032;-64
2022/08/08 10:54:01;;;;;;;5.43;1.63;;;31.20;71.00;;;;;;5090883;28;20032;-64
2022/08/08 10:56:32;;;;;;;2.33;1.27;;;31.40;70.70;;;;;;5090843;28;20039;-64
2022/08/08 10:59:08;;;;;;;3.40;1.27;;;30.30;71.70;;;;;;5089475;28;20514;-63
2022/08/08 11:01:36;;;;;;;3.35;1.10;;;29.50;71.90;;;;;;5089617;28;20043;-63
2022/08/08 11:04:07;;;;;;;2.75;1.30;;;29.50;72.90;;;;;;5091047;28;20032;-63
2022/08/08 11:06:34;;;;;;;2.85;1.33;;;29.10;73.70;;;;;;5090521;28;20059;-63
2022/08/08 11:09:10;;;;;;;2.92;1.10;;;29.50;72.10;;;;;;5091129;28;20028;-64
2022/08/08 11:11:37;;;;;;;2.92;1.08;;;30.30;71.30;;;;;;5091286;28;20500;-63
2022/08/08 11:14:03;;;;;;;3.50;1.00;;;31.00;69.30;;;;;;5089205;28;20073;-63
2022/08/08 11:16:32;;;;;;;3.67;0.82;;;31.20;68.10;;;;;;5083017;28;20428;-64
2022/08/08 11:19:00;;;;;;;3.40;1.10;;;31.30;66.30;;;;;;5075461;28;20177;-64
2022/08/08 11:21:29;;;;;;;4.05;1.15;;;31.30;68.60;;;;;;5074529;28;20512;-63
2022/08/08 11:23:57;;;;;;;3.45;1.30;;;32.00;66.20;;;;;;5088431;28;20032;-63
2022/08/08 11:26:27;;;;;;;4.45;1.40;;;32.30;65.70;;;;;;5070484;28;20481;-63
2022/08/08 11:28:56;;;;;;;1.75;1.20;;;32.20;66.00;;;;;;5087025;28;20034;-64
2022/08/08 11:31:26;;;;;;;3.35;1.30;;;31.40;66.30;;;;;;5072104;28;20389;-64
2022/08/08 11:33:59;;;;;;;5.97;1.98;;;31.60;67.30;;;;;;5083826;28;20381;-64
2022/08/08 11:36:25;;;;;;;2.50;1.20;;;32.50;65.10;;;;;;5070381;28;20063;-64
2022/08/08 11:38:52;;;;;;;3.58;1.50;;;32.10;65.80;;;;;;5070434;28;20070;-63
2022/08/08 11:41:18;;;;;;;3.78;1.85;;;33.10;64.50;;;;;;5070515;28;20037;-64
2022/08/08 11:43:46;;;;;;;3.78;1.73;;;31.90;66.70;;;;;;5087878;28;20479;-64
2022/08/08 11:46:11;;;;;;;2.78;1.60;;;30.80;69.50;;;;;;5092472;28;20450;-64
2022/08/08 11:48:38;;;;;;;3.90;1.77;;;29.90;71.70;;;;;;5094556;28;20024;-63
2022/08/08 11:51:04;;;;;;;4.13;2.10;;;28.90;74.40;;;;;;5094135;28;20039;-63
2022/08/08 11:53:30;;;;;;;3.95;1.50;;;28.70;74.90;;;;;;5093982;28;20066;-63
2022/08/08 11:55:56;;;;;;;4.25;1.60;;;29.20;73.90;;;;;;5080533;28;20021;-63
2022/08/08 11:58:32;;;;;;;2.85;1.58;;;29.50;73.10;;;;;;5073931;28;20078;-63
2022/08/08 12:01:01;;;;;;;4.32;1.55;;;29.70;72.10;;;;;;5072342;28;20063;-63
2022/08/08 12:03:32;;;;;;;2.90;1.70;;;30.40;71.20;;;;;;5073861;28;20036;-63
2022/08/08 12:05:59;;;;;;;5.13;1.73;;;31.20;69.80;;;;;;5073720;28;20472;-64
2022/08/08 12:08:32;;;;;;;8.25;1.80;;;32.10;67.50;;;;;;5073734;28;20117;-64
2022/08/08 12:11:00;;;;;;;4.15;1.45;;;33.20;65.40;;;;;;5073460;28;20499;-64
2022/08/08 12:13:27;;;;;;;5.13;1.27;;;32.50;65.80;;;;;;5073273;28;20028;-64
2022/08/08 12:15:54;;;;;;;4.70;1.50;;;31.60;67.70;;;;;;5072044;28;20069;-63
2022/08/08 12:18:23;;;;;;;5.95;1.33;;;31.30;68.30;;;;;;5074629;28;20024;-63
2022/08/08 12:20:53;;;;;;;14.35;2.22;;;31.60;67.90;;;;;;5092651;28;20065;-63
2022/08/08 12:23:30;;;;;;;3.70;1.50;;;32.40;65.80;;;;;;5089489;28;20444;-63
2022/08/08 12:26:10;;;;;;;5.60;1.20;;;31.80;66.80;;;;;;5082239;28;20048;-63
2022/08/08 12:28:36;;;;;;;5.70;1.40;;;31.90;67.10;;;;;;5093556;28;20029;-63
2022/08/08 12:31:07;;;;;;;6.18;1.58;;;31.90;66.80;;;;;;5091516;28;20545;-63
2022/08/08 12:33:33;;;;;;;4.90;1.67;;;31.40;68.10;;;;;;5093232;28;20153;-63
2022/08/08 12:36:12;;;;;;;4.43;1.70;;;32.10;66.10;;;;;;5093429;28;20119;-63
2022/08/08 12:38:48;;;;;;;4.85;1.60;;;31.90;66.10;;;;;;5093516;28;20027;-63
2022/08/08 12:41:14;;;;;;;2.88;1.10;;;32.30;66.20;;;;;;5093610;28;20047;-63
2022/08/08 12:43:40;;;;;;;7.10;1.55;;;32.30;66.00;;;;;;5082671;28;20067;-64
2022/08/08 12:46:16;;;;;;;5.47;1.63;;;31.60;66.40;;;;;;5090140;28;20032;-64
2022/08/08 12:49:02;;;;;;;3.28;1.50;;;30.40;68.80;;;;;;5083261;28;20020;-64
2022/08/08 12:51:42;;;;;;;4.53;1.67;;;29.30;70.70;;;;;;5082327;28;20389;-63
2022/08/08 12:54:18;;;;;;;4.43;1.40;;;28.60;73.60;;;;;;5072522;28;20029;-63
2022/08/08 12:56:43;;;;;;;8.07;1.90;;;29.40;72.80;;;;;;5072058;28;20414;-63
2022/08/08 12:59:29;;;;;;;4.20;1.23;;;30.10;70.50;;;;;;5073144;28;20118;-63
2022/08/08 13:01:59;;;;;;;3.33;1.50;;;31.40;68.40;;;;;;5080338;28;20035;-64
2022/08/08 13:04:27;;;;;;;3.63;1.30;;;32.40;66.30;;;;;;5090953;28;20031;-64
2022/08/08 13:06:57;;;;;;;4.75;1.70;;;32.30;65.40;;;;;;5083207;28;20607;-64
2022/08/08 13:09:58;;;;;;;2.83;1.42;;;31.10;66.80;;;;;;5076645;28;20492;-64
2022/08/08 13:12:31;;;;;;;2.50;1.48;;;29.70;69.30;;;;;;5065079;28;20044;-64
2022/08/08 13:14:59;;;;;;;4.85;1.90;;;29.80;70.60;;;;;;5073326;28;20025;-64
2022/08/08 13:17:26;;;;;;;5.18;1.60;;;30.90;68.20;;;;;;5084291;28;20035;-64
2022/08/08 13:19:53;;;;;;;3.85;1.33;;;31.10;66.90;;;;;;5071241;28;20496;-63